Аэропорт: Витязево. Анапа

ICAO: URKA

METAR:
2019-07-23 18:00:00
URKA 231800Z 06002MPS 9999 FEW/// 22/20 Q1009 R04/010070 NOSIG RMK QFE753/1004
METAR:
2019-07-23 16:57:00
TAF URKA 231657Z 2318/2418 05003G08MPS 9999 SCT030CB TEMPO 2318/2405 3100 BR SCT011 SCT030CB TEMPO 2405/2418 VRB06G14MPS 3100 -TSRA SCT011 BKN020CB